Time;durP1;ratioP1;P1;durP2;ratioP2;P2;SDS_P1;SDS_P2;PMS_P1;PMS_P2;Temp;Humidity;BMP_temperature;BMP_pressure;BME280_temperature;BME280_humidity;BME280_pressure;Samples;Min_cycle;Max_cycle;Signal;HPM_P1;HPM_P2
2021/12/13 00:00:33;;;;;;;7.05;4.60;;;;;;;4.89;94.08;101439.75;5055177;28;20471;-78
2021/12/13 00:03:09;;;;;;;4.75;3.85;;;;;;;4.83;94.02;101445.69;5054803;28;20047;-78
2021/12/13 00:05:43;;;;;;;5.80;4.30;;;;;;;4.88;94.13;101433.66;5050557;28;20040;-78
2021/12/13 00:08:13;;;;;;;6.10;4.25;;;;;;;4.92;93.86;101443.34;5051561;28;20116;-78
2021/12/13 00:10:49;;;;;;;5.95;4.63;;;;;;;4.93;94.11;101439.91;5054593;28;20086;-78
2021/12/13 00:13:20;;;;;;;5.43;4.13;;;;;;;4.95;93.89;101437.31;5054621;28;20055;-78
2021/12/13 00:15:56;;;;;;;5.38;3.67;;;;;;;4.92;93.70;101442.47;5053907;28;20064;-77
2021/12/13 00:18:27;;;;;;;5.22;4.13;;;;;;;4.96;93.78;101446.97;5054347;28;20445;-78
2021/12/13 00:21:04;;;;;;;5.72;4.90;;;;;;;4.97;93.92;101447.00;5050045;28;20032;-78
2021/12/13 00:23:34;;;;;;;6.22;4.85;;;;;;;4.96;93.97;101444.34;5051064;28;20028;-78
2021/12/13 00:26:02;;;;;;;6.15;4.85;;;;;;;4.98;93.95;101446.16;5054033;28;20487;-78
2021/12/13 00:28:38;;;;;;;6.05;4.88;;;;;;;5.00;94.07;101440.97;5053985;28;20040;-78
2021/12/13 00:31:32;;;;;;;6.45;5.05;;;;;;;5.00;93.90;101447.13;5053722;28;20029;-78
2021/12/13 00:34:14;;;;;;;4.68;3.75;;;;;;;5.04;93.73;101445.47;5047070;28;20045;-78
2021/12/13 00:36:47;;;;;;;5.38;4.38;;;;;;;5.06;93.89;101449.03;5053662;28;20041;-78
2021/12/13 00:39:31;;;;;;;8.18;4.45;;;;;;;5.14;93.51;101451.88;5050516;28;20052;-78
2021/12/13 00:41:57;;;;;;;6.20;3.67;;;;;;;5.18;93.28;101445.88;5045838;28;20045;-78
2021/12/13 00:44:29;;;;;;;4.80;3.83;;;;;;;5.17;93.64;101450.25;5052250;28;20497;-78
2021/12/13 00:46:57;;;;;;;5.45;3.85;;;;;;;5.16;93.49;101451.09;5054278;28;20039;-78
2021/12/13 00:49:27;;;;;;;6.47;4.13;;;;;;;5.15;93.20;101451.91;5054131;28;20045;-78
2021/12/13 00:51:58;;;;;;;5.20;4.38;;;;;;;5.17;93.36;101454.59;5053228;28;20517;-78
2021/12/13 00:54:29;;;;;;;5.38;4.03;;;;;;;5.18;93.45;101452.00;5053491;28;20028;-79
2021/12/13 00:57:14;;;;;;;7.05;4.88;;;;;;;5.21;93.19;101448.59;5052872;28;20116;-77
2021/12/13 00:59:43;;;;;;;6.50;4.72;;;;;;;5.22;93.11;101451.25;5050691;28;20037;-77
2021/12/13 01:02:09;;;;;;;5.45;4.47;;;;;;;5.19;93.34;101453.78;5048889;28;20060;-77
2021/12/13 01:05:00;;;;;;;5.20;4.10;;;;;;;5.19;93.68;101452.91;5049354;28;20068;-77
2021/12/13 01:08:09;;;;;;;5.15;4.00;;;;;;;5.19;93.21;101452.91;5049473;28;20044;-77
2021/12/13 01:10:53;;;;;;;6.30;5.13;;;;;;;5.13;93.91;101444.84;5051089;28;20036;-77
2021/12/13 01:13:26;;;;;;;5.88;4.82;;;;;;;5.12;93.17;101450.94;5049356;28;20479;-78
2021/12/13 01:16:33;;;;;;;5.75;4.50;;;;;;;5.15;94.11;101457.16;5052284;28;20128;-77
2021/12/13 01:22:44;;;;;;;7.10;4.75;;;;;;;5.16;93.43;101458.94;5048998;28;20585;-78
2021/12/13 01:25:18;;;;;;;6.38;5.25;;;;;;;5.16;93.94;101464.19;5039201;28;20052;-78
2021/12/13 01:27:55;;;;;;;5.60;4.65;;;;;;;5.19;93.94;101464.25;5050568;28;20052;-78
2021/12/13 01:30:36;;;;;;;6.47;4.47;;;;;;;5.21;93.29;101469.53;5053415;28;20040;-78
2021/12/13 01:33:06;;;;;;;6.65;4.90;;;;;;;5.20;93.25;101468.66;5048862;28;20182;-78
2021/12/13 01:35:35;;;;;;;6.72;4.40;;;;;;;5.23;93.25;101481.81;5044581;28;20036;-78
2021/12/13 01:38:07;;;;;;;6.57;4.57;;;;;;;5.24;93.48;101473.16;5048364;28;20037;-78
2021/12/13 01:40:37;;;;;;;5.97;4.25;;;;;;;5.25;93.19;101474.03;5046012;28;20038;-78
2021/12/13 01:43:19;;;;;;;5.68;4.55;;;;;;;5.25;92.62;101481.88;5052989;28;20041;-78
2021/12/13 01:45:47;;;;;;;6.93;4.45;;;;;;;5.24;93.14;101483.63;5052666;28;20028;-78
2021/12/13 01:48:30;;;;;;;7.22;5.20;;;;;;;5.28;93.33;101485.47;5053149;28;20502;-78
2021/12/13 01:51:06;;;;;;;6.90;5.13;;;;;;;5.28;92.75;101480.22;5049524;28;20033;-78
2021/12/13 01:53:55;;;;;;;6.53;5.28;;;;;;;5.23;92.98;101479.19;5050864;28;20455;-78
2021/12/13 01:56:42;;;;;;;5.25;4.43;;;;;;;5.27;93.20;101483.69;5049470;28;20037;-78
2021/12/13 02:01:57;;;;;;;7.43;5.72;;;;;;;5.33;93.30;101488.22;5050691;28;20040;-78
2021/12/13 02:04:23;;;;;;;5.90;4.75;;;;;;;5.37;93.03;101484.88;5052648;28;20055;-78
2021/12/13 02:06:51;;;;;;;7.80;5.22;;;;;;;5.39;92.76;101490.16;5051780;28;20409;-78
2021/12/13 02:09:20;;;;;;;8.63;6.32;;;;;;;5.42;93.06;101490.22;5052272;28;20033;-78
2021/12/13 02:11:49;;;;;;;9.23;6.63;;;;;;;5.36;92.33;101493.56;5053027;28;20110;-78
2021/12/13 02:14:20;;;;;;;5.70;4.55;;;;;;;5.39;92.40;101487.53;5053186;28;20063;-78
2021/12/13 02:17:08;;;;;;;7.35;5.10;;;;;;;5.38;92.66;101488.38;5060267;28;20048;-78
2021/12/13 02:19:39;;;;;;;7.22;5.60;;;;;;;5.31;92.77;101489.91;5049323;28;20045;-78
2021/12/13 02:22:22;;;;;;;7.05;4.75;;;;;;;5.34;93.25;101487.38;5052408;28;20132;-78
2021/12/13 02:24:49;;;;;;;7.18;5.28;;;;;;;5.35;93.22;101491.78;5042710;28;20052;-78
2021/12/13 02:27:20;;;;;;;6.10;5.03;;;;;;;5.37;92.78;101483.97;5053695;28;20052;-78
2021/12/13 02:29:47;;;;;;;6.90;6.13;;;;;;;5.37;92.70;101495.34;5052724;28;20041;-78
2021/12/13 02:32:13;;;;;;;6.25;5.25;;;;;;;5.39;92.66;101488.41;5052317;28;20446;-78
2021/12/13 02:34:42;;;;;;;7.80;6.43;;;;;;;5.39;92.73;101491.03;5052095;28;20041;-78
2021/12/13 02:37:09;;;;;;;7.65;5.70;;;;;;;5.40;92.99;101489.31;5047375;28;20401;-78
2021/12/13 02:39:39;;;;;;;6.40;4.93;;;;;;;5.40;92.70;101495.44;5050089;28;20146;-78
2021/12/13 02:42:08;;;;;;;6.18;4.63;;;;;;;5.41;92.81;101491.97;5051771;28;20059;-78
2021/12/13 02:44:42;;;;;;;6.82;5.40;;;;;;;5.37;93.16;101483.97;5049752;28;20036;-78
2021/12/13 02:47:19;;;;;;;7.63;5.53;;;;;;;5.37;93.15;101484.88;5049201;28;20029;-78
2021/12/13 02:49:45;;;;;;;6.88;5.60;;;;;;;5.38;93.02;101485.75;5049123;28;20041;-78
2021/12/13 02:52:14;;;;;;;7.35;5.18;;;;;;;5.40;93.12;101484.09;5051987;28;20112;-78
2021/12/13 02:54:44;;;;;;;9.32;7.45;;;;;;;5.47;93.41;101489.53;5051943;28;20039;-78
2021/12/13 02:57:21;;;;;;;6.65;5.00;;;;;;;5.51;92.56;101487.91;5052122;28;20039;-78
2021/12/13 02:59:55;;;;;;;7.05;5.35;;;;;;;5.52;93.03;101494.03;5050455;28;20041;-78
2021/12/13 03:02:31;;;;;;;7.22;6.13;;;;;;;5.46;93.28;101490.38;5051966;28;20033;-78
2021/12/13 03:04:58;;;;;;;6.82;5.65;;;;;;;5.53;92.87;101490.53;5048498;28;20402;-78
2021/12/13 03:07:30;;;;;;;6.53;5.38;;;;;;;5.56;93.01;101494.16;5056939;28;20033;-78
2021/12/13 03:09:56;;;;;;;;;;;;;;;5.53;93.40;101491.47;5057586;28;20044;-78
2021/12/13 03:12:25;;;;;;;8.98;6.72;;;;;;;5.56;93.30;101488.06;5056440;28;20003;-78
2021/12/13 03:14:57;;;;;;;7.82;6.50;;;;;;;5.60;92.62;101493.41;5067569;28;20120;-78
2021/12/13 03:17:31;;;;;;;8.50;6.78;;;;;;;5.64;92.38;101490.03;5047229;28;20131;-78
2021/12/13 03:20:33;;;;;;;7.32;5.47;;;;;;;5.66;92.41;101480.50;5056032;28;20041;-78
2021/12/13 03:23:13;;;;;;;7.93;5.90;;;;;;;5.65;92.24;101481.31;5054086;28;20039;-78
2021/12/13 03:26:13;;;;;;;7.20;5.72;;;;;;;5.66;92.56;101485.75;5055786;28;20041;-79
2021/12/13 03:29:04;;;;;;;6.40;5.07;;;;;;;5.69;92.48;101485.81;5045177;28;20443;-79
2021/12/13 03:31:41;;;;;;;9.32;7.10;;;;;;;5.67;93.02;101484.88;5053448;28;20040;-78
2021/12/13 03:34:15;;;;;;;6.85;5.47;;;;;;;5.69;92.34;101493.69;5051844;28;20044;-79
2021/12/13 03:37:03;;;;;;;7.47;5.72;;;;;;;5.65;92.54;101497.03;5055333;28;20037;-78
2021/12/13 03:39:52;;;;;;;9.77;7.18;;;;;;;5.63;92.82;101496.13;5055309;28;20033;-78
2021/12/13 03:42:25;;;;;;;8.13;6.88;;;;;;;5.65;92.97;101490.91;5055141;28;20044;-78
2021/12/13 03:44:54;;;;;;;7.35;5.68;;;;;;;5.66;93.25;101501.47;5055138;28;20043;-78
2021/12/13 03:47:25;;;;;;;8.07;5.90;;;;;;;5.68;92.86;101504.97;5055667;28;20025;-78
2021/12/13 03:49:54;;;;;;;7.43;6.50;;;;;;;5.61;93.43;101516.16;5055379;28;20083;-78
2021/12/13 03:52:23;;;;;;;9.43;7.55;;;;;;;5.66;93.31;101511.94;5055154;28;20093;-78
2021/12/13 03:54:52;;;;;;;7.72;6.50;;;;;;;5.69;93.48;101514.63;5051226;28;20033;-78
2021/12/13 03:57:18;;;;;;;8.52;6.97;;;;;;;5.70;92.70;101516.41;5050820;28;20056;-78
2021/12/13 03:59:46;;;;;;;9.60;6.65;;;;;;;5.67;92.97;101512.81;5053137;28;20119;-78
2021/12/13 04:02:16;;;;;;;8.95;7.38;;;;;;;5.70;93.23;101510.28;5054121;28;20528;-78
2021/12/13 04:05:03;;;;;;;8.07;7.10;;;;;;;5.70;93.26;101511.16;5057149;28;20033;-78
2021/12/13 04:07:34;;;;;;;11.25;7.22;;;;;;;5.74;93.40;101516.47;5053180;28;20060;-78
2021/12/13 04:10:07;;;;;;;7.40;5.32;;;;;;;5.70;93.31;101513.78;5054597;28;20502;-78
2021/12/13 04:12:43;;;;;;;9.20;7.40;;;;;;;5.77;93.27;101529.69;5054471;28;20071;-78
2021/12/13 04:15:23;;;;;;;7.97;6.20;;;;;;;5.82;92.62;101515.88;5046063;28;20040;-78
2021/12/13 04:18:12;;;;;;;8.70;6.45;;;;;;;5.82;93.39;101522.88;5043274;28;20045;-78
2021/12/13 04:20:41;;;;;;;11.10;8.18;;;;;;;5.80;93.17;101521.91;5049444;28;20041;-78
2021/12/13 04:23:16;;;;;;;7.97;5.93;;;;;;;5.88;93.20;101520.41;5054378;28;20036;-78
2021/12/13 04:25:44;;;;;;;9.68;6.90;;;;;;;5.97;92.83;101519.81;5053235;28;20150;-78
2021/12/13 04:28:35;;;;;;;10.88;7.20;;;;;;;5.89;92.84;101522.16;5054795;28;20033;-78
2021/12/13 04:31:06;;;;;;;7.97;6.55;;;;;;;5.93;92.80;101529.28;5049664;28;20041;-78
2021/12/13 04:33:36;;;;;;;9.85;8.57;;;;;;;5.93;93.13;101530.22;5049407;28;20036;-78
2021/12/13 04:36:08;;;;;;;11.98;8.88;;;;;;;5.93;92.70;101529.28;5052243;28;20036;-78
2021/12/13 04:38:52;;;;;;;12.13;6.88;;;;;;;5.99;92.86;101533.84;5053548;28;20044;-78
2021/12/13 04:41:32;;;;;;;8.75;6.53;;;;;;;5.98;92.30;101532.09;5049102;28;20079;-78
2021/12/13 04:44:03;;;;;;;11.38;8.60;;;;;;;5.96;91.90;101532.03;5053960;28;20518;-78
2021/12/13 04:46:30;;;;;;;9.88;6.90;;;;;;;5.95;92.62;101540.75;5052184;28;20040;-78
2021/12/13 04:49:00;;;;;;;8.48;6.25;;;;;;;5.99;92.94;101539.97;5053705;28;20041;-78
2021/12/13 04:51:34;;;;;;;9.80;6.97;;;;;;;6.04;92.76;101543.59;5051558;28;20487;-78
2021/12/13 04:54:00;;;;;;;7.95;7.10;;;;;;;6.09;92.61;101542.00;5051719;28;20543;-79
2021/12/13 04:56:28;;;;;;;8.75;7.18;;;;;;;6.18;92.08;101546.63;5052508;28;20033;-78
2021/12/13 04:58:57;;;;;;;9.93;7.13;;;;;;;6.17;91.31;101549.22;5053454;28;20033;-78
2021/12/13 05:01:24;;;;;;;6.93;5.72;;;;;;;6.21;91.50;101545.81;5051634;28;20116;-78
2021/12/13 05:03:59;;;;;;;8.05;5.38;;;;;;;6.24;91.99;101540.69;5053107;28;20384;-79
2021/12/13 05:06:30;;;;;;;7.03;5.88;;;;;;;6.20;91.26;101551.91;5052570;28;20252;-78
2021/12/13 05:08:58;;;;;;;9.07;6.80;;;;;;;6.17;91.81;101549.22;5048961;28;20044;-79
2021/12/13 05:11:31;;;;;;;7.10;5.47;;;;;;;6.14;91.54;101550.88;5049154;28;20044;-79
2021/12/13 05:13:58;;;;;;;7.82;5.95;;;;;;;6.15;91.47;101551.78;5044716;28;20047;-79
2021/12/13 05:16:38;;;;;;;6.68;5.30;;;;;;;6.17;91.77;101550.09;5053171;28;20037;-78
2021/12/13 05:19:07;;;;;;;7.30;5.50;;;;;;;6.20;91.66;101546.66;5053421;28;20048;-78
2021/12/13 05:21:41;;;;;;;6.75;5.60;;;;;;;6.27;91.46;101544.25;5052401;28;20112;-79
2021/12/13 05:24:23;;;;;;;7.38;5.20;;;;;;;6.22;90.99;101537.13;5052927;28;20045;-78
2021/12/13 05:27:00;;;;;;;7.05;6.07;;;;;;;6.24;91.42;101544.19;5049685;28;20098;-79
2021/12/13 05:29:42;;;;;;;6.78;5.57;;;;;;;6.23;91.39;101550.25;5052437;28;20494;-79
2021/12/13 05:32:28;;;;;;;;;;;;;;;6.16;90.98;101556.19;5052334;28;20128;-79
2021/12/13 05:35:29;;;;;;;8.43;5.53;;;;;;;6.18;91.26;101551.84;5046715;28;19913;-79
2021/12/13 05:38:00;;;;;;;8.18;6.05;;;;;;;6.14;91.63;101557.88;5044133;28;20048;-78
2021/12/13 05:40:34;;;;;;;6.93;5.60;;;;;;;6.16;91.58;101569.31;5052007;28;20037;-79
2021/12/13 05:43:11;;;;;;;8.63;7.07;;;;;;;6.18;91.65;101570.19;5052336;28;20068;-79
2021/12/13 05:45:40;;;;;;;6.57;5.88;;;;;;;6.18;91.51;101567.59;5047677;28;20041;-80
2021/12/13 05:48:18;;;;;;;8.13;6.43;;;;;;;6.16;91.84;101569.31;5050641;28;20044;-78
2021/12/13 05:50:59;;;;;;;6.70;5.50;;;;;;;6.25;91.51;101573.91;5046886;28;20037;-78
2021/12/13 05:53:43;;;;;;;7.28;6.00;;;;;;;6.28;91.34;101577.47;5043692;28;20071;-78
2021/12/13 05:56:13;;;;;;;8.45;6.65;;;;;;;6.33;91.41;101572.38;5065344;28;20473;-80
2021/12/13 05:58:41;;;;;;;7.30;5.88;;;;;;;6.34;91.35;101579.38;5044361;28;20090;-79
2021/12/13 06:01:36;;;;;;;13.20;9.55;;;;;;;6.36;90.90;101575.09;5045907;28;20401;-79
2021/12/13 06:04:07;;;;;;;9.73;7.18;;;;;;;6.36;90.50;101569.84;5043806;28;20384;-79
2021/12/13 06:06:43;;;;;;;9.73;6.57;;;;;;;6.35;90.69;101576.81;5049552;28;20446;-79
2021/12/13 06:09:09;;;;;;;8.15;6.05;;;;;;;6.30;91.04;101581.03;5050090;28;20040;-79
2021/12/13 06:11:38;;;;;;;8.13;5.90;;;;;;;6.36;91.11;101580.31;5048831;28;20506;-79
2021/12/13 06:14:18;;;;;;;8.40;6.45;;;;;;;6.35;90.94;101581.19;5049917;28;20063;-79
2021/12/13 06:17:07;;;;;;;6.95;5.05;;;;;;;6.36;90.96;101582.94;5041815;28;20037;-79
2021/12/13 06:19:37;;;;;;;6.82;5.63;;;;;;;6.32;91.09;101584.59;5050294;28;20025;-79
2021/12/13 06:22:16;;;;;;;7.10;6.10;;;;;;;6.39;90.49;101593.50;5047427;28;20040;-79
2021/12/13 06:24:41;;;;;;;5.80;5.10;;;;;;;6.40;91.20;101594.44;5048589;28;20542;-79
2021/12/13 06:27:21;;;;;;;6.53;5.40;;;;;;;6.37;90.64;101600.47;5051425;28;20033;-78
2021/12/13 06:29:59;;;;;;;8.07;5.05;;;;;;;6.38;91.21;101598.72;5051537;28;20036;-78
2021/12/13 06:32:36;;;;;;;7.20;5.70;;;;;;;6.33;91.12;101594.22;5047527;28;20047;-78
2021/12/13 06:35:31;;;;;;;8.60;6.15;;;;;;;6.33;90.87;101593.34;5048450;28;20056;-78
2021/12/13 06:38:19;;;;;;;7.45;5.75;;;;;;;6.41;91.27;101597.06;5048239;28;20132;-78
2021/12/13 06:41:12;;;;;;;5.88;5.25;;;;;;;6.49;90.98;101587.69;5054060;28;20510;-78
2021/12/13 06:43:48;;;;;;;6.18;5.55;;;;;;;6.51;90.61;101591.25;5054114;28;20032;-78
2021/12/13 06:46:22;;;;;;;8.00;5.43;;;;;;;6.46;90.94;101594.59;5055081;28;20072;-79
2021/12/13 06:48:54;;;;;;;5.85;4.65;;;;;;;6.45;91.20;101598.94;5051842;28;20501;-78
2021/12/13 06:51:36;;;;;;;6.50;5.28;;;;;;;6.42;91.69;101597.97;5055403;28;20047;-78
2021/12/13 06:54:05;;;;;;;5.88;5.07;;;;;;;6.43;91.20;101599.75;5045623;28;20033;-78
2021/12/13 06:56:34;;;;;;;8.32;7.03;;;;;;;6.42;91.09;101603.19;5054028;28;20461;-78
2021/12/13 06:59:02;;;;;;;7.10;6.07;;;;;;;6.33;91.93;101609.97;5055619;28;20047;-78
2021/12/13 07:01:29;;;;;;;6.78;5.63;;;;;;;6.26;92.54;101617.59;5037499;28;20048;-78
2021/12/13 07:04:02;;;;;;;7.50;6.07;;;;;;;6.26;92.08;101617.59;5055237;28;20043;-78
2021/12/13 07:06:28;;;;;;;7.93;6.03;;;;;;;6.21;92.25;101616.59;5054746;28;20119;-79
2021/12/13 07:09:04;;;;;;;8.98;7.05;;;;;;;6.19;93.19;101610.44;5054988;28;20083;-78
2021/12/13 07:11:53;;;;;;;8.65;6.55;;;;;;;6.15;93.71;101606.81;5066749;28;20074;-78
2021/12/13 07:14:30;;;;;;;7.75;5.90;;;;;;;6.12;94.18;101607.63;5049291;28;20066;-80
2021/12/13 07:16:56;;;;;;;8.43;6.78;;;;;;;6.11;94.59;101613.72;5051145;28;20409;-78
2021/12/13 07:19:32;;;;;;;8.68;7.35;;;;;;;6.13;94.30;101622.53;5054810;28;20119;-78
2021/12/13 07:22:02;;;;;;;9.38;7.82;;;;;;;6.12;94.63;101627.69;5051872;28;20629;-79
2021/12/13 07:25:03;;;;;;;9.15;6.68;;;;;;;6.12;94.67;101625.97;5054687;28;20693;-78
2021/12/13 07:27:33;;;;;;;8.70;7.28;;;;;;;6.18;94.42;101629.59;5032629;28;20498;-78
2021/12/13 07:30:06;;;;;;;9.55;7.75;;;;;;;6.20;94.01;101628.81;5027873;28;20045;-79
2021/12/13 07:32:36;;;;;;;10.45;8.13;;;;;;;6.24;94.88;101628.06;5054254;28;20029;-78
2021/12/13 07:35:13;;;;;;;10.50;8.07;;;;;;;6.27;94.38;101636.03;5045031;28;20052;-78
2021/12/13 07:37:50;;;;;;;10.88;7.07;;;;;;;6.35;94.00;101634.50;5050520;28;20094;-79
2021/12/13 07:40:36;;;;;;;8.73;7.38;;;;;;;6.34;94.01;101637.06;5051800;28;20041;-78
2021/12/13 07:43:20;;;;;;;9.02;6.78;;;;;;;6.39;93.86;101635.47;5053630;28;20045;-78
2021/12/13 07:46:11;;;;;;;9.07;6.85;;;;;;;6.41;93.74;101646.91;5053159;28;20463;-78
2021/12/13 07:48:55;;;;;;;15.00;10.75;;;;;;;6.51;94.06;101638.44;5051030;28;20041;-78
2021/12/13 07:51:26;;;;;;;19.70;12.95;;;;;;;6.53;93.55;101642.00;5065471;28;20076;-79
2021/12/13 07:54:02;;;;;;;10.00;7.10;;;;;;;6.58;93.89;101644.78;5046251;28;20479;-79
2021/12/13 07:56:36;;;;;;;8.75;7.18;;;;;;;6.67;93.20;101646.75;5046743;28;20032;-78
2021/12/13 07:59:27;;;;;;;9.15;7.18;;;;;;;6.72;92.42;101653.00;5043819;28;20021;-79
2021/12/13 08:02:02;;;;;;;8.88;6.85;;;;;;;6.75;92.87;101660.97;5049882;28;20075;-79
2021/12/13 08:04:46;;;;;;;6.72;5.32;;;;;;;6.77;92.82;101659.28;5048093;28;20505;-78
2021/12/13 08:07:16;;;;;;;8.43;6.55;;;;;;;6.81;93.02;101663.75;5053964;28;20509;-78
2021/12/13 08:09:46;;;;;;;8.13;6.35;;;;;;;6.93;92.14;101653.59;5054003;28;20032;-78
2021/12/13 08:12:19;;;;;;;8.32;6.40;;;;;;;6.97;92.04;101657.19;5053681;28;20510;-78
2021/12/13 08:14:48;;;;;;;7.47;6.13;;;;;;;7.01;91.92;101656.41;5048749;28;20071;-78
2021/12/13 08:17:18;;;;;;;10.48;7.97;;;;;;;7.01;92.15;101659.94;5052381;28;20124;-78
2021/12/13 08:19:52;;;;;;;8.48;6.68;;;;;;;7.07;91.02;101663.56;5050526;28;20228;-78
2021/12/13 08:22:19;;;;;;;9.07;7.78;;;;;;;7.00;91.29;101667.78;5049020;28;20560;-78
2021/12/13 08:24:52;;;;;;;9.00;6.32;;;;;;;7.06;91.69;101669.66;5050461;28;20090;-78
2021/12/13 08:27:31;;;;;;;7.97;6.78;;;;;;;7.10;91.50;101672.44;5052867;28;20028;-78
2021/12/13 08:30:15;;;;;;;9.35;7.25;;;;;;;7.09;90.78;101677.63;5051963;28;20411;-78
2021/12/13 08:33:05;;;;;;;7.78;6.22;;;;;;;7.09;90.96;101677.63;5051234;28;20399;-79
2021/12/13 08:36:02;;;;;;;6.45;4.65;;;;;;;7.10;91.02;101684.63;5049327;28;20025;-78
2021/12/13 08:38:36;;;;;;;7.95;5.78;;;;;;;7.12;91.01;101688.19;5046182;28;20087;-79
2021/12/13 08:41:28;;;;;;;6.93;5.43;;;;;;;7.18;91.19;101691.00;5050506;28;20048;-79
2021/12/13 08:44:18;;;;;;;7.50;5.30;;;;;;;7.18;90.41;101688.38;5036424;28;20052;-78
2021/12/13 08:46:47;;;;;;;6.97;5.30;;;;;;;7.16;91.54;101696.19;5049194;28;20033;-78
2021/12/13 08:49:20;;;;;;;6.60;5.53;;;;;;;7.27;91.62;101698.22;5052830;28;20513;-79
2021/12/13 08:52:19;;;;;;;7.00;5.22;;;;;;;7.32;91.11;101697.50;5049161;28;20072;-78
2021/12/13 08:55:00;;;;;;;6.93;5.68;;;;;;;7.30;90.25;101696.56;5046228;28;20430;-79
2021/12/13 08:57:39;;;;;;;10.20;6.80;;;;;;;7.33;91.06;101696.63;5049644;28;20029;-78
2021/12/13 09:00:19;;;;;;;9.68;6.78;;;;;;;7.42;91.11;101698.63;5052419;28;20055;-79
2021/12/13 09:03:12;;;;;;;8.05;5.28;;;;;;;7.46;90.27;101693.47;5048813;28;20041;-78
2021/12/13 09:05:52;;;;;;;8.73;6.35;;;;;;;7.55;90.87;101702.44;5048566;28;20128;-78
2021/12/13 09:08:41;;;;;;;8.25;6.43;;;;;;;7.64;90.45;101700.91;5052873;28;20037;-78
2021/12/13 09:11:34;;;;;;;9.43;7.22;;;;;;;7.65;90.41;101701.78;5045645;28;20039;-78
2021/12/13 09:14:13;;;;;;;7.15;5.43;;;;;;;7.73;89.89;101709.88;5048030;28;20048;-79
2021/12/13 09:16:45;;;;;;;7.18;5.68;;;;;;;7.71;89.24;101708.97;5045313;28;20037;-78
2021/12/13 09:19:13;;;;;;;;;;;;;;;7.67;89.60;101705.34;5047818;28;20036;-79
2021/12/13 09:21:49;;;;;;;8.23;6.13;;;;;;;7.74;89.36;101704.66;5052567;28;20387;-79
2021/12/13 09:24:27;;;;;;;6.85;5.68;;;;;;;7.82;89.42;101707.47;5052701;28;20075;-79
2021/12/13 09:26:57;;;;;;;6.65;5.13;;;;;;;7.87;89.15;101712.00;5049187;28;20033;-78
2021/12/13 09:29:24;;;;;;;8.27;6.03;;;;;;;7.87;89.25;101701.47;5047990;28;20040;-78
2021/12/13 09:31:51;;;;;;;5.82;4.93;;;;;;;7.98;89.59;101708.72;5050882;28;20060;-79
2021/12/13 09:34:25;;;;;;;5.80;4.78;;;;;;;8.06;89.08;101709.78;5052742;28;20036;-79
2021/12/13 09:36:54;;;;;;;6.60;4.80;;;;;;;8.04;88.98;101711.50;5056913;28;20104;-78
2021/12/13 09:39:26;;;;;;;9.40;5.40;;;;;;;8.00;88.25;101707.91;5054143;28;20036;-78
2021/12/13 09:42:00;;;;;;;7.47;5.13;;;;;;;8.00;88.30;101705.28;5052134;28;20037;-79
2021/12/13 09:44:37;;;;;;;11.18;6.32;;;;;;;8.01;89.34;101706.16;5050461;28;20037;-79
2021/12/13 09:47:17;;;;;;;11.65;6.82;;;;;;;7.97;89.07;101709.59;5052364;28;20040;-78
2021/12/13 09:50:04;;;;;;;10.05;6.50;;;;;;;7.86;88.79;101704.97;5029362;28;20052;-79
2021/12/13 09:52:33;;;;;;;11.48;7.75;;;;;;;7.86;89.59;101706.72;5052094;28;20025;-79
2021/12/13 09:55:02;;;;;;;10.63;6.53;;;;;;;7.87;90.18;101705.84;5047704;28;20037;-78
2021/12/13 09:57:35;;;;;;;9.70;7.20;;;;;;;7.87;89.79;101698.84;5045029;28;20047;-78
2021/12/13 10:00:12;;;;;;;8.48;5.72;;;;;;;7.83;89.94;101704.91;5047287;28;20032;-78
2021/12/13 10:02:41;;;;;;;8.55;5.82;;;;;;;7.82;90.88;101699.59;5048696;28;20041;-78
2021/12/13 10:05:11;;;;;;;7.65;6.00;;;;;;;7.85;91.13;101703.16;5050479;28;20037;-78
2021/12/13 10:07:40;;;;;;;8.27;6.32;;;;;;;7.87;90.84;101704.09;5051650;28;20098;-79
2021/12/13 10:10:16;;;;;;;9.13;6.85;;;;;;;7.87;90.86;101698.84;5051541;28;20072;-79
2021/12/13 10:12:46;;;;;;;8.77;6.35;;;;;;;7.90;91.00;101698.91;5051376;28;20041;-78
2021/12/13 10:15:19;;;;;;;8.50;6.85;;;;;;;7.93;90.43;101697.22;5049256;28;20048;-79
2021/12/13 10:17:48;;;;;;;8.50;6.15;;;;;;;7.96;90.62;101694.66;5051758;28;20090;-79
2021/12/13 10:20:23;;;;;;;11.20;6.53;;;;;;;7.96;91.19;101692.03;5051352;28;20043;-79
2021/12/13 10:22:50;;;;;;;8.32;6.22;;;;;;;7.90;90.75;101696.28;5051134;28;20121;-79
2021/12/13 10:25:30;;;;;;;7.28;5.18;;;;;;;7.86;91.36;101697.09;5050784;28;20544;-79
2021/12/13 10:27:57;;;;;;;10.48;7.13;;;;;;;7.79;91.28;101689.91;5051046;28;20082;-79
2021/12/13 10:30:34;;;;;;;7.03;5.57;;;;;;;7.79;92.20;101695.16;5051133;28;20033;-79
2021/12/13 10:33:02;;;;;;;9.85;7.15;;;;;;;7.80;91.95;101696.03;5050155;28;20044;-78
2021/12/13 10:35:32;;;;;;;12.27;8.00;;;;;;;7.78;92.73;101701.28;5058063;28;20037;-79
2021/12/13 10:38:04;;;;;;;8.60;6.65;;;;;;;7.79;92.77;101700.41;5039595;28;20037;-80
2021/12/13 10:40:34;;;;;;;8.52;6.50;;;;;;;7.86;92.47;101694.44;5047625;28;20037;-79
2021/12/13 10:43:09;;;;;;;8.57;6.70;;;;;;;7.84;91.98;101697.91;5051055;28;20114;-79
2021/12/13 10:45:39;;;;;;;10.75;8.02;;;;;;;7.82;92.92;101689.97;5050771;28;20033;-79
2021/12/13 10:48:11;;;;;;;10.63;7.30;;;;;;;7.90;92.18;101698.03;5048101;28;20033;-79
2021/12/13 10:50:41;;;;;;;9.40;7.05;;;;;;;7.88;92.00;101695.34;5050785;28;20087;-79
2021/12/13 10:53:10;;;;;;;10.45;8.15;;;;;;;7.90;92.61;101691.03;5049894;28;20045;-79
2021/12/13 10:55:46;;;;;;;10.48;7.65;;;;;;;8.00;92.94;101684.25;5048806;28;20479;-79
2021/12/13 10:58:31;;;;;;;9.20;7.35;;;;;;;8.02;91.83;101686.94;5050054;28;20119;-79
2021/12/13 11:01:40;;;;;;;10.00;7.43;;;;;;;8.04;92.23;101690.44;5043758;28;20094;-79
2021/12/13 11:04:11;;;;;;;10.13;7.60;;;;;;;8.11;92.50;101689.75;5011992;28;20033;-78
2021/12/13 11:06:39;;;;;;;11.02;8.10;;;;;;;8.19;92.50;101685.53;5016408;28;20041;-80
2021/12/13 11:09:09;;;;;;;9.80;7.45;;;;;;;8.18;91.67;101682.91;5027719;28;20132;-79
2021/12/13 11:12:08;;;;;;;9.75;7.85;;;;;;;8.19;92.07;101680.28;5038668;28;20414;-80
2021/12/13 11:14:36;;;;;;;9.45;7.93;;;;;;;8.26;92.11;101676.94;5041335;28;20059;-79
2021/12/13 11:17:07;;;;;;;9.50;7.47;;;;;;;8.32;91.85;101677.06;5047059;28;20114;-79
2021/12/13 11:19:37;;;;;;;9.32;7.32;;;;;;;8.38;91.42;101675.41;5046156;28;20499;-80
2021/12/13 11:22:09;;;;;;;8.88;6.95;;;;;;;8.30;91.79;101673.50;5044397;28;20368;-80
2021/12/13 11:24:40;;;;;;;9.77;7.60;;;;;;;8.29;91.54;101677.00;5050518;28;20185;-79
2021/12/13 11:27:13;;;;;;;9.45;8.02;;;;;;;8.32;91.92;101677.06;5054308;28;20032;-79
2021/12/13 11:29:41;;;;;;;;;;;;;;;8.28;92.07;101680.50;5055043;28;20090;-79
2021/12/13 11:32:34;;;;;;;12.68;8.20;;;;;;;8.39;91.96;101677.22;5054462;28;19917;-77
2021/12/13 11:35:11;;;;;;;;;;;;;;;8.35;92.54;101671.84;5051784;28;20041;-79
2021/12/13 11:38:10;;;;;;;7.38;6.10;;;;;;;8.41;91.58;101673.78;5050006;28;19924;-79
2021/12/13 11:41:04;;;;;;;9.32;7.40;;;;;;;8.47;91.96;101670.41;5050342;28;20055;-79
2021/12/13 11:44:06;;;;;;;8.25;6.43;;;;;;;8.43;91.63;101674.69;5049971;28;20454;-79
2021/12/13 11:47:11;;;;;;;10.53;7.77;;;;;;;8.47;91.67;101673.03;5053199;28;20036;-78
2021/12/13 11:49:51;;;;;;;11.05;8.15;;;;;;;8.49;91.29;101676.59;5050153;28;20661;-79
2021/12/13 11:52:58;;;;;;;10.45;7.60;;;;;;;8.49;91.68;101684.47;5051641;28;20457;-78
2021/12/13 11:56:03;;;;;;;9.60;6.90;;;;;;;8.47;92.18;101681.81;5052960;28;20140;-80
2021/12/13 11:58:45;;;;;;;8.18;6.35;;;;;;;8.48;91.98;101683.56;5054054;28;20116;-79
2021/12/13 12:01:29;;;;;;;7.95;6.22;;;;;;;8.55;92.40;101676.69;5051425;28;20065;-79
2021/12/13 12:04:06;;;;;;;8.00;5.90;;;;;;;8.59;91.63;101688.16;5050718;28;20076;-78
2021/12/13 12:07:26;;;;;;;9.95;6.75;;;;;;;8.63;91.74;101680.38;5041672;28;20075;-79
2021/12/13 12:10:27;;;;;;;12.10;7.95;;;;;;;8.81;91.43;101676.34;5027761;28;20124;-80
2021/12/13 12:13:21;;;;;;;9.38;6.28;;;;;;;8.74;91.69;101676.19;5047787;28;20041;-79
2021/12/13 12:15:46;;;;;;;11.13;7.45;;;;;;;8.70;91.25;101679.66;5043825;28;20082;-79
2021/12/13 12:18:18;;;;;;;8.43;5.93;;;;;;;8.76;92.09;101678.88;5044344;28;20028;-79
2021/12/13 12:20:50;;;;;;;10.27;7.38;;;;;;;8.80;91.87;101679.81;5046042;28;20041;-79
2021/12/13 12:23:28;;;;;;;7.30;5.80;;;;;;;8.88;92.28;101683.47;5043333;28;20120;-79